EmailTwitter


Surface observations / United States / KJFK (74486)

Regions: Quebec | Canada | USA | Europe | France | UK | Elsewhere
Station
Display
Info & Location for KJFK (74486) | Help decoding METAR

Weather Conditions observed on 2018/10/15 at 09:51 UTC at NEW YORK/JF KENN, NY (KJFK)

Sky conditions: overcast.

Temperature: 15.0 Celsius.

Dewpoint: 12.8 Celsius.

Relative Humidity: 87%

Winds: Southwest at 20 km/h or 11 knots.

Mean Sea level Pressure: 102.16 kilopascals.

Altimeter Setting (QNH): 102.17 kilopascals or 30.17 inches of mercury.

Horizontal visibility: 10.00 statute miles or 16.00 kilometers.

Height of the Ceiling: 1097 metres ( 3600 feet ).

There was 0.00 millimeters of precipitation in the past 6 hours.

Coded METAR:

KJFK 150951Z 22011KT 10SM FEW012 OVC036 15/13 A3017 RMK AO2 RAB0856E25 SLP216

P0000 T01500128 $=